sensor_id;sensor_type;location;lat;lon;timestamp;pressure;altitude;pressure_sealevel;temperature;humidity
47753;BME280;2038;51.728;6.674;2023-03-14T00:00:13;98337.53;;;12.80;100.00
47753;BME280;2038;51.728;6.674;2023-03-14T00:02:40;98342.56;;;12.77;100.00
47753;BME280;2038;51.728;6.674;2023-03-14T00:05:07;98350.41;;;12.86;100.00
47753;BME280;2038;51.728;6.674;2023-03-14T00:07:36;98352.09;;;12.84;100.00
47753;BME280;2038;51.728;6.674;2023-03-14T00:10:09;98352.09;;;12.85;100.00
47753;BME280;2038;51.728;6.674;2023-03-14T00:12:39;98356.28;;;12.82;100.00
47753;BME280;2038;51.728;6.674;2023-03-14T00:15:06;98360.63;;;12.86;100.00
47753;BME280;2038;51.728;6.674;2023-03-14T00:17:35;98352.88;;;12.80;100.00
47753;BME280;2038;51.728;6.674;2023-03-14T00:20:03;98350.31;;;12.80;100.00
47753;BME280;2038;51.728;6.674;2023-03-14T00:22:35;98333.41;;;12.89;100.00
47753;BME280;2038;51.728;6.674;2023-03-14T00:25:02;98326.53;;;12.85;100.00
47753;BME280;2038;51.728;6.674;2023-03-14T00:27:29;98307.00;;;12.87;100.00
47753;BME280;2038;51.728;6.674;2023-03-14T00:29:55;98297.56;;;12.85;100.00
47753;BME280;2038;51.728;6.674;2023-03-14T00:32:21;98293.44;;;12.93;100.00
47753;BME280;2038;51.728;6.674;2023-03-14T00:34:47;98284.84;;;12.89;100.00
47753;BME280;2038;51.728;6.674;2023-03-14T00:37:14;98284.00;;;12.89;100.00
47753;BME280;2038;51.728;6.674;2023-03-14T00:39:41;98284.84;;;12.89;100.00
47753;BME280;2038;51.728;6.674;2023-03-14T00:42:07;98289.13;;;12.90;100.00
47753;BME280;2038;51.728;6.674;2023-03-14T00:44:34;98302.66;;;12.85;100.00
47753;BME280;2038;51.728;6.674;2023-03-14T00:47:00;98300.19;;;12.88;100.00
47753;BME280;2038;51.728;6.674;2023-03-14T00:49:26;98319.69;;;12.84;100.00
47753;BME280;2038;51.728;6.674;2023-03-14T00:51:53;98315.53;;;12.88;100.00
47753;BME280;2038;51.728;6.674;2023-03-14T00:54:19;98298.41;;;12.85;100.00
47753;BME280;2038;51.728;6.674;2023-03-14T00:56:47;98303.56;;;12.88;100.00
47753;BME280;2038;51.728;6.674;2023-03-14T00:59:13;98319.69;;;12.83;100.00
47753;BME280;2038;51.728;6.674;2023-03-14T01:01:41;98314.44;;;12.75;100.00
47753;BME280;2038;51.728;6.674;2023-03-14T01:04:07;98313.75;;;12.85;100.00
47753;BME280;2038;51.728;6.674;2023-03-14T01:06:34;98304.31;;;12.81;100.00
47753;BME280;2038;51.728;6.674;2023-03-14T01:09:00;98304.22;;;12.75;100.00
47753;BME280;2038;51.728;6.674;2023-03-14T01:11:32;98316.22;;;12.79;100.00
47753;BME280;2038;51.728;6.674;2023-03-14T01:14:00;98314.28;;;12.66;100.00
47753;BME280;2038;51.728;6.674;2023-03-14T01:16:29;98326.53;;;12.84;100.00
47753;BME280;2038;51.728;6.674;2023-03-14T01:18:58;98329.81;;;12.78;100.00
47753;BME280;2038;51.728;6.674;2023-03-14T01:21:27;98322.97;;;12.76;100.00
47753;BME280;2038;51.728;6.674;2023-03-14T01:23:57;98319.59;;;12.78;100.00
47753;BME280;2038;51.728;6.674;2023-03-14T01:26:27;98326.31;;;12.73;100.00
47753;BME280;2038;51.728;6.674;2023-03-14T01:28:56;98309.94;;;12.62;100.00
47753;BME280;2038;51.728;6.674;2023-03-14T01:31:23;98328.88;;;12.72;100.00
47753;BME280;2038;51.728;6.674;2023-03-14T01:33:50;98321.13;;;12.68;100.00
47753;BME280;2038;51.728;6.674;2023-03-14T01:36:17;98334.03;;;12.76;100.00
47753;BME280;2038;51.728;6.674;2023-03-14T01:38:43;98317.91;;;12.80;100.00
47753;BME280;2038;51.728;6.674;2023-03-14T01:41:15;98311.16;;;12.82;100.00
47753;BME280;2038;51.728;6.674;2023-03-14T01:43:43;98322.03;;;12.71;100.00
47753;BME280;2038;51.728;6.674;2023-03-14T01:46:24;98322.09;;;12.75;100.00
47753;BME280;2038;51.728;6.674;2023-03-14T01:52:07;98303.31;;;12.72;100.00
47753;BME280;2038;51.728;6.674;2023-03-14T01:54:44;98295.56;;;12.67;100.00
47753;BME280;2038;51.728;6.674;2023-03-14T01:57:27;98299.03;;;12.71;100.00
47753;BME280;2038;51.728;6.674;2023-03-14T02:00:04;98295.34;;;12.56;100.00
47753;BME280;2038;51.728;6.674;2023-03-14T02:02:48;98296.09;;;12.49;100.00
47753;BME280;2038;51.728;6.674;2023-03-14T02:05:22;98303.94;;;12.60;100.00
47753;BME280;2038;51.728;6.674;2023-03-14T02:07:53;98299.59;;;12.56;100.00
47753;BME280;2038;51.728;6.674;2023-03-14T02:10:27;98309.91;;;12.60;100.00
47753;BME280;2038;51.728;6.674;2023-03-14T02:13:01;98293.66;;;12.57;100.00
47753;BME280;2038;51.728;6.674;2023-03-14T02:15:29;98291.84;;;12.50;100.00
47753;BME280;2038;51.728;6.674;2023-03-14T02:17:57;98288.50;;;12.54;100.00
47753;BME280;2038;51.728;6.674;2023-03-14T02:20:28;98287.38;;;12.38;100.00
47753;BME280;2038;51.728;6.674;2023-03-14T02:23:01;98300.00;;;12.32;100.00
47753;BME280;2038;51.728;6.674;2023-03-14T02:28:17;98291.28;;;12.19;100.00
47753;BME280;2038;51.728;6.674;2023-03-14T02:30:43;98305.81;;;12.24;100.00
47753;BME280;2038;51.728;6.674;2023-03-14T02:33:18;98301.56;;;12.24;100.00
47753;BME280;2038;51.728;6.674;2023-03-14T02:35:50;98286.84;;;12.11;100.00
47753;BME280;2038;51.728;6.674;2023-03-14T02:38:33;98291.03;;;12.09;100.00
47753;BME280;2038;51.728;6.674;2023-03-14T02:41:06;98297.75;;;12.04;100.00
47753;BME280;2038;51.728;6.674;2023-03-14T02:43:32;98298.34;;;11.92;100.00
47753;BME280;2038;51.728;6.674;2023-03-14T02:45:59;98294.94;;;11.92;100.00
47753;BME280;2038;51.728;6.674;2023-03-14T02:48:35;98299.59;;;11.70;100.00
47753;BME280;2038;51.728;6.674;2023-03-14T02:51:08;98307.38;;;11.75;100.00
47753;BME280;2038;51.728;6.674;2023-03-14T02:53:36;98291.16;;;11.73;100.00
47753;BME280;2038;51.728;6.674;2023-03-14T02:56:04;98301.13;;;11.64;100.00
47753;BME280;2038;51.728;6.674;2023-03-14T02:58:31;98300.47;;;11.71;100.00
47753;BME280;2038;51.728;6.674;2023-03-14T03:00:57;98294.50;;;11.70;100.00
47753;BME280;2038;51.728;6.674;2023-03-14T03:03:23;98296.47;;;11.84;100.00
47753;BME280;2038;51.728;6.674;2023-03-14T03:05:51;98289.69;;;11.84;100.00
47753;BME280;2038;51.728;6.674;2023-03-14T03:08:23;98284.28;;;11.70;100.00
47753;BME280;2038;51.728;6.674;2023-03-14T03:10:52;98291.22;;;11.76;100.00
47753;BME280;2038;51.728;6.674;2023-03-14T03:13:19;98281.88;;;11.75;100.00
47753;BME280;2038;51.728;6.674;2023-03-14T03:15:46;98285.91;;;11.68;100.00
47753;BME280;2038;51.728;6.674;2023-03-14T03:18:12;98284.13;;;11.63;100.00
47753;BME280;2038;51.728;6.674;2023-03-14T03:20:39;98287.84;;;11.77;100.00
47753;BME280;2038;51.728;6.674;2023-03-14T03:23:05;98276.81;;;11.78;100.00
47753;BME280;2038;51.728;6.674;2023-03-14T03:25:32;98274.22;;;11.77;100.00
47753;BME280;2038;51.728;6.674;2023-03-14T03:27:59;98275.25;;;11.85;100.00
47753;BME280;2038;51.728;6.674;2023-03-14T03:30:27;98269.28;;;11.84;100.00
47753;BME280;2038;51.728;6.674;2023-03-14T03:32:53;98271.88;;;11.86;100.00
47753;BME280;2038;51.728;6.674;2023-03-14T03:35:19;98267.56;;;11.83;100.00
47753;BME280;2038;51.728;6.674;2023-03-14T03:37:45;98269.16;;;11.78;100.00
47753;BME280;2038;51.728;6.674;2023-03-14T03:40:12;98270.03;;;11.80;100.00
47753;BME280;2038;51.728;6.674;2023-03-14T03:42:38;98278.63;;;11.84;100.00
47753;BME280;2038;51.728;6.674;2023-03-14T03:45:05;98254.78;;;11.82;100.00
47753;BME280;2038;51.728;6.674;2023-03-14T03:47:32;98268.41;;;11.84;100.00
47753;BME280;2038;51.728;6.674;2023-03-14T03:49:58;98269.28;;;11.84;100.00
47753;BME280;2038;51.728;6.674;2023-03-14T03:52:24;98277.06;;;11.90;100.00
47753;BME280;2038;51.728;6.674;2023-03-14T03:54:50;98277.03;;;11.89;100.00
47753;BME280;2038;51.728;6.674;2023-03-14T03:57:16;98280.34;;;11.83;100.00
47753;BME280;2038;51.728;6.674;2023-03-14T03:59:42;98279.47;;;11.84;100.00
47753;BME280;2038;51.728;6.674;2023-03-14T04:02:09;98288.81;;;11.84;100.00
47753;BME280;2038;51.728;6.674;2023-03-14T04:04:35;98281.06;;;11.78;100.00
47753;BME280;2038;51.728;6.674;2023-03-14T04:07:01;98277.91;;;11.89;100.00
47753;BME280;2038;51.728;6.674;2023-03-14T04:09:28;98270.19;;;11.86;100.00
47753;BME280;2038;51.728;6.674;2023-03-14T04:11:54;98275.19;;;11.82;100.00
47753;BME280;2038;51.728;6.674;2023-03-14T04:14:20;98262.47;;;11.83;100.00
47753;BME280;2038;51.728;6.674;2023-03-14T04:16:46;98267.47;;;11.79;100.00
47753;BME280;2038;51.728;6.674;2023-03-14T04:19:13;98267.59;;;11.85;100.00
47753;BME280;2038;51.728;6.674;2023-03-14T04:21:39;98266.66;;;11.81;100.00
47753;BME280;2038;51.728;6.674;2023-03-14T04:24:12;98265.19;;;11.91;100.00
47753;BME280;2038;51.728;6.674;2023-03-14T04:26:39;98265.03;;;11.85;100.00
47753;BME280;2038;51.728;6.674;2023-03-14T04:29:05;98260.03;;;11.89;100.00
47753;BME280;2038;51.728;6.674;2023-03-14T04:31:31;98250.59;;;11.85;100.00
47753;BME280;2038;51.728;6.674;2023-03-14T04:33:58;98247.94;;;11.81;100.00
47753;BME280;2038;51.728;6.674;2023-03-14T04:36:24;98250.53;;;11.84;100.00
47753;BME280;2038;51.728;6.674;2023-03-14T04:38:50;98244.63;;;11.83;100.00
47753;BME280;2038;51.728;6.674;2023-03-14T04:41:16;98239.41;;;11.80;100.00
47753;BME280;2038;51.728;6.674;2023-03-14T04:43:42;98242.88;;;11.84;100.00
47753;BME280;2038;51.728;6.674;2023-03-14T04:46:09;98237.72;;;11.79;100.00
47753;BME280;2038;51.728;6.674;2023-03-14T04:48:35;98229.97;;;11.76;100.00
47753;BME280;2038;51.728;6.674;2023-03-14T04:51:03;98231.53;;;11.69;100.00
47753;BME280;2038;51.728;6.674;2023-03-14T04:53:30;98231.47;;;11.66;100.00
47753;BME280;2038;51.728;6.674;2023-03-14T04:55:56;98231.38;;;11.62;100.00
47753;BME280;2038;51.728;6.674;2023-03-14T04:58:23;98229.84;;;11.70;100.00
47753;BME280;2038;51.728;6.674;2023-03-14T05:00:50;98231.47;;;11.68;100.00
47753;BME280;2038;51.728;6.674;2023-03-14T05:03:17;98229.03;;;11.71;100.00
47753;BME280;2038;51.728;6.674;2023-03-14T05:05:44;98229.81;;;11.68;100.00
47753;BME280;2038;51.728;6.674;2023-03-14T05:08:11;98223.00;;;11.69;100.00
47753;BME280;2038;51.728;6.674;2023-03-14T05:10:37;98219.63;;;11.70;100.00
47753;BME280;2038;51.728;6.674;2023-03-14T05:13:04;98212.69;;;11.63;100.00
47753;BME280;2038;51.728;6.674;2023-03-14T05:15:30;98212.53;;;11.55;100.00
47753;BME280;2038;51.728;6.674;2023-03-14T05:17:56;98208.53;;;11.66;100.00
47753;BME280;2038;51.728;6.674;2023-03-14T05:20:22;98199.09;;;11.64;100.00
47753;BME280;2038;51.728;6.674;2023-03-14T05:22:49;98215.09;;;11.57;100.00
47753;BME280;2038;51.728;6.674;2023-03-14T05:25:15;98206.69;;;11.61;100.00
47753;BME280;2038;51.728;6.674;2023-03-14T05:27:41;98205.88;;;11.62;100.00
47753;BME280;2038;51.728;6.674;2023-03-14T05:30:08;98206.69;;;11.59;100.00
47753;BME280;2038;51.728;6.674;2023-03-14T05:32:35;98209.34;;;11.65;100.00
47753;BME280;2038;51.728;6.674;2023-03-14T05:35:01;98209.13;;;11.55;100.00
47753;BME280;2038;51.728;6.674;2023-03-14T05:37:28;98212.63;;;11.60;100.00
47753;BME280;2038;51.728;6.674;2023-03-14T05:39:54;98215.16;;;11.60;100.00
47753;BME280;2038;51.728;6.674;2023-03-14T05:42:20;98208.38;;;11.60;100.00
47753;BME280;2038;51.728;6.674;2023-03-14T05:44:47;98216.88;;;11.61;100.00
47753;BME280;2038;51.728;6.674;2023-03-14T05:47:13;98210.88;;;11.57;100.00
47753;BME280;2038;51.728;6.674;2023-03-14T05:49:39;98214.16;;;11.52;100.00
47753;BME280;2038;51.728;6.674;2023-03-14T05:52:05;98198.88;;;11.53;100.00
47753;BME280;2038;51.728;6.674;2023-03-14T05:54:32;98204.09;;;11.58;100.00
47753;BME280;2038;51.728;6.674;2023-03-14T05:56:58;98202.25;;;11.51;100.00
47753;BME280;2038;51.728;6.674;2023-03-14T05:59:24;98198.88;;;11.53;100.00
47753;BME280;2038;51.728;6.674;2023-03-14T06:01:50;98201.44;;;11.53;100.00
47753;BME280;2038;51.728;6.674;2023-03-14T06:04:16;98197.75;;;11.41;100.00
47753;BME280;2038;51.728;6.674;2023-03-14T06:06:43;98201.09;;;11.37;100.00
47753;BME280;2038;51.728;6.674;2023-03-14T06:09:09;98200.22;;;11.36;100.00
47753;BME280;2038;51.728;6.674;2023-03-14T06:11:35;98202.00;;;11.39;100.00
47753;BME280;2038;51.728;6.674;2023-03-14T06:14:01;98213.94;;;11.41;100.00
47753;BME280;2038;51.728;6.674;2023-03-14T06:16:27;98212.34;;;11.48;100.00
47753;BME280;2038;51.728;6.674;2023-03-14T06:18:54;98204.59;;;11.42;100.00
47753;BME280;2038;51.728;6.674;2023-03-14T06:21:20;98206.81;;;11.26;100.00
47753;BME280;2038;51.728;6.674;2023-03-14T06:23:47;98204.13;;;11.20;100.00
47753;BME280;2038;51.728;6.674;2023-03-14T06:26:13;98200.88;;;11.27;100.00
47753;BME280;2038;51.728;6.674;2023-03-14T06:28:39;98200.03;;;11.27;100.00
47753;BME280;2038;51.728;6.674;2023-03-14T06:31:06;98198.28;;;11.24;100.00
47753;BME280;2038;51.728;6.674;2023-03-14T06:33:32;98193.16;;;11.24;100.00
47753;BME280;2038;51.728;6.674;2023-03-14T06:35:58;98188.81;;;11.19;100.00
47753;BME280;2038;51.728;6.674;2023-03-14T06:38:24;98191.44;;;11.23;100.00
47753;BME280;2038;51.728;6.674;2023-03-14T06:40:51;98188.06;;;11.24;100.00
47753;BME280;2038;51.728;6.674;2023-03-14T06:43:17;98190.63;;;11.24;100.00
47753;BME280;2038;51.728;6.674;2023-03-14T06:45:43;98198.31;;;11.26;100.00
47753;BME280;2038;51.728;6.674;2023-03-14T06:48:09;98183.78;;;11.23;100.00
47753;BME280;2038;51.728;6.674;2023-03-14T06:50:36;98197.66;;;11.35;100.00
47753;BME280;2038;51.728;6.674;2023-03-14T06:53:02;98197.72;;;11.38;100.00
47753;BME280;2038;51.728;6.674;2023-03-14T06:55:28;98201.19;;;11.41;100.00
47753;BME280;2038;51.728;6.674;2023-03-14T06:57:54;98208.13;;;11.48;100.00
47753;BME280;2038;51.728;6.674;2023-03-14T07:00:21;98210.78;;;11.53;100.00
47753;BME280;2038;51.728;6.674;2023-03-14T07:02:47;98214.09;;;11.49;100.00
47753;BME280;2038;51.728;6.674;2023-03-14T07:05:13;98210.81;;;11.56;100.00
47753;BME280;2038;51.728;6.674;2023-03-14T07:07:40;98217.69;;;11.58;100.00
47753;BME280;2038;51.728;6.674;2023-03-14T07:10:06;98198.97;;;11.58;100.00
47753;BME280;2038;51.728;6.674;2023-03-14T07:12:34;98202.34;;;11.55;100.00
47753;BME280;2038;51.728;6.674;2023-03-14T07:15:00;98215.97;;;11.57;100.00
47753;BME280;2038;51.728;6.674;2023-03-14T07:17:26;98210.06;;;11.58;100.00
47753;BME280;2038;51.728;6.674;2023-03-14T07:19:53;98217.81;;;11.63;100.00
47753;BME280;2038;51.728;6.674;2023-03-14T07:22:19;98216.78;;;11.56;100.00
47753;BME280;2038;51.728;6.674;2023-03-14T07:24:45;98222.97;;;11.67;100.00
47753;BME280;2038;51.728;6.674;2023-03-14T07:27:11;98227.28;;;11.70;100.00
47753;BME280;2038;51.728;6.674;2023-03-14T07:29:38;98220.53;;;11.72;100.00
47753;BME280;2038;51.728;6.674;2023-03-14T07:32:04;98218.09;;;11.77;100.00
47753;BME280;2038;51.728;6.674;2023-03-14T07:34:30;98223.25;;;11.78;100.00
47753;BME280;2038;51.728;6.674;2023-03-14T07:36:56;98214.91;;;11.88;100.00
47753;BME280;2038;51.728;6.674;2023-03-14T07:39:22;98227.78;;;11.93;100.00
47753;BME280;2038;51.728;6.674;2023-03-14T07:41:49;98235.47;;;11.96;100.00
47753;BME280;2038;51.728;6.674;2023-03-14T07:44:15;98235.56;;;12.00;100.00
47753;BME280;2038;51.728;6.674;2023-03-14T07:46:41;98234.84;;;12.06;100.00
47753;BME280;2038;51.728;6.674;2023-03-14T07:49:08;98241.72;;;12.10;100.00
47753;BME280;2038;51.728;6.674;2023-03-14T07:51:34;98234.84;;;12.06;100.00
47753;BME280;2038;51.728;6.674;2023-03-14T07:54:00;98245.13;;;12.10;100.00
47753;BME280;2038;51.728;6.674;2023-03-14T07:56:26;98249.28;;;12.05;100.00
47753;BME280;2038;51.728;6.674;2023-03-14T07:58:53;98239.81;;;11.98;100.00
47753;BME280;2038;51.728;6.674;2023-03-14T08:01:19;98243.00;;;11.88;100.00
47753;BME280;2038;51.728;6.674;2023-03-14T08:03:45;98249.09;;;11.95;100.00
47753;BME280;2038;51.728;6.674;2023-03-14T08:06:11;98247.38;;;11.94;100.00
47753;BME280;2038;51.728;6.674;2023-03-14T08:08:37;98244.00;;;11.96;100.00
47753;BME280;2038;51.728;6.674;2023-03-14T08:11:05;98244.22;;;12.08;100.00
47753;BME280;2038;51.728;6.674;2023-03-14T08:13:37;98245.88;;;12.05;100.00
47753;BME280;2038;51.728;6.674;2023-03-14T08:16:06;98241.59;;;12.04;100.00
47753;BME280;2038;51.728;6.674;2023-03-14T08:18:34;98246.00;;;12.12;100.00
47753;BME280;2038;51.728;6.674;2023-03-14T08:21:01;98247.00;;;12.19;100.00
47753;BME280;2038;51.728;6.674;2023-03-14T08:23:27;98254.81;;;12.27;100.00
47753;BME280;2038;51.728;6.674;2023-03-14T08:25:53;98264.34;;;12.37;100.00
47753;BME280;2038;51.728;6.674;2023-03-14T08:28:19;98254.16;;;12.38;100.00
47753;BME280;2038;51.728;6.674;2023-03-14T08:30:45;98252.56;;;12.45;100.00
47753;BME280;2038;51.728;6.674;2023-03-14T08:33:12;98256.69;;;12.37;100.00
47753;BME280;2038;51.728;6.674;2023-03-14T08:35:38;98258.59;;;12.48;100.00
47753;BME280;2038;51.728;6.674;2023-03-14T08:38:05;98252.59;;;12.46;100.00
47753;BME280;2038;51.728;6.674;2023-03-14T08:40:31;98262.00;;;12.49;100.00
47753;BME280;2038;51.728;6.674;2023-03-14T08:42:57;98276.19;;;12.33;100.00
47753;BME280;2038;51.728;6.674;2023-03-14T08:45:25;98348.81;;;12.04;100.00
47753;BME280;2038;51.728;6.674;2023-03-14T08:47:51;98353.47;;;11.47;100.00
47753;BME280;2038;51.728;6.674;2023-03-14T08:50:17;98346.69;;;11.13;100.00
47753;BME280;2038;51.728;6.674;2023-03-14T08:52:43;98374.28;;;10.95;100.00
47753;BME280;2038;51.728;6.674;2023-03-14T08:55:10;98371.19;;;10.73;100.00
47753;BME280;2038;51.728;6.674;2023-03-14T08:57:36;98372.28;;;10.52;100.00
47753;BME280;2038;51.728;6.674;2023-03-14T09:00:04;98386.03;;;10.27;100.00
47753;BME280;2038;51.728;6.674;2023-03-14T09:02:35;98380.59;;;10.15;100.00
47753;BME280;2038;51.728;6.674;2023-03-14T09:05:02;98394.03;;;10.12;100.00
47753;BME280;2038;51.728;6.674;2023-03-14T09:07:28;98400.06;;;10.14;100.00
47753;BME280;2038;51.728;6.674;2023-03-14T09:09:54;98416.78;;;10.06;100.00
47753;BME280;2038;51.728;6.674;2023-03-14T09:12:20;98423.78;;;10.13;100.00
47753;BME280;2038;51.728;6.674;2023-03-14T09:14:47;98442.16;;;10.05;100.00
47753;BME280;2038;51.728;6.674;2023-03-14T09:17:13;98455.38;;;10.20;100.00
47753;BME280;2038;51.728;6.674;2023-03-14T09:19:39;98461.84;;;10.10;100.00
47753;BME280;2038;51.728;6.674;2023-03-14T09:22:05;98465.28;;;10.11;100.00
47753;BME280;2038;51.728;6.674;2023-03-14T09:24:31;98480.75;;;10.17;100.00
47753;BME280;2038;51.728;6.674;2023-03-14T09:26:58;98478.00;;;10.11;100.00
47753;BME280;2038;51.728;6.674;2023-03-14T09:29:24;98490.91;;;10.17;100.00
47753;BME280;2038;51.728;6.674;2023-03-14T09:31:51;98501.09;;;10.17;100.00
47753;BME280;2038;51.728;6.674;2023-03-14T09:34:17;98507.22;;;10.23;100.00
47753;BME280;2038;51.728;6.674;2023-03-14T09:36:44;98518.13;;;10.19;100.00
47753;BME280;2038;51.728;6.674;2023-03-14T09:39:11;98524.25;;;10.24;100.00
47753;BME280;2038;51.728;6.674;2023-03-14T09:41:48;98544.28;;;9.88;100.00
47753;BME280;2038;51.728;6.674;2023-03-14T09:44:29;98569.41;;;9.79;100.00
47753;BME280;2038;51.728;6.674;2023-03-14T09:47:06;98566.66;;;9.73;100.00
47753;BME280;2038;51.728;6.674;2023-03-14T09:49:41;98579.59;;;9.56;100.00
47753;BME280;2038;51.728;6.674;2023-03-14T09:52:29;98612.75;;;9.33;100.00
47753;BME280;2038;51.728;6.674;2023-03-14T09:55:03;98624.03;;;9.42;100.00
47753;BME280;2038;51.728;6.674;2023-03-14T09:57:40;98641.59;;;9.35;100.00
47753;BME280;2038;51.728;6.674;2023-03-14T10:00:21;98653.88;;;9.47;100.00
47753;BME280;2038;51.728;6.674;2023-03-14T10:02:55;98683.13;;;9.36;100.00
47753;BME280;2038;51.728;6.674;2023-03-14T10:05:26;98693.66;;;9.23;100.00
47753;BME280;2038;51.728;6.674;2023-03-14T10:07:53;98696.56;;;9.10;100.00
47753;BME280;2038;51.728;6.674;2023-03-14T10:10:22;98710.53;;;8.99;100.00
47753;BME280;2038;51.728;6.674;2023-03-14T10:13:07;98729.75;;;8.92;100.00
47753;BME280;2038;51.728;6.674;2023-03-14T10:15:41;98730.69;;;8.94;100.00
47753;BME280;2038;51.728;6.674;2023-03-14T10:18:11;98752.56;;;8.90;100.00
47753;BME280;2038;51.728;6.674;2023-03-14T10:20:44;98765.59;;;9.00;100.00
47753;BME280;2038;51.728;6.674;2023-03-14T10:25:58;98785.25;;;9.04;100.00
47753;BME280;2038;51.728;6.674;2023-03-14T10:28:29;98810.09;;;8.90;100.00
47753;BME280;2038;51.728;6.674;2023-03-14T10:30:59;98823.41;;;8.84;100.00
47753;BME280;2038;51.728;6.674;2023-03-14T10:33:29;98836.31;;;8.89;100.00
47753;BME280;2038;51.728;6.674;2023-03-14T10:36:02;98830.13;;;8.82;100.00
47753;BME280;2038;51.728;6.674;2023-03-14T10:38:49;98845.47;;;8.85;100.00
47753;BME280;2038;51.728;6.674;2023-03-14T10:41:26;98846.69;;;8.95;100.00
47753;BME280;2038;51.728;6.674;2023-03-14T10:43:59;98874.72;;;8.97;100.00
47753;BME280;2038;51.728;6.674;2023-03-14T10:46:31;98898.00;;;9.07;100.00
47753;BME280;2038;51.728;6.674;2023-03-14T10:48:59;98898.38;;;8.96;100.00
47753;BME280;2038;51.728;6.674;2023-03-14T10:51:31;98904.91;;;9.10;100.00
47753;BME280;2038;51.728;6.674;2023-03-14T10:54:03;98916.25;;;9.18;100.00
47753;BME280;2038;51.728;6.674;2023-03-14T10:56:38;98918.44;;;9.29;100.00
47753;BME280;2038;51.728;6.674;2023-03-14T10:59:10;98937.50;;;9.20;100.00
47753;BME280;2038;51.728;6.674;2023-03-14T11:01:54;98949.31;;;9.18;100.00
47753;BME280;2038;51.728;6.674;2023-03-14T11:07:46;98972.25;;;9.00;100.00
47753;BME280;2038;51.728;6.674;2023-03-14T11:21:19;99038.31;;;8.81;100.00
47753;BME280;2038;51.728;6.674;2023-03-14T11:26:48;99061.03;;;8.78;100.00
47753;BME280;2038;51.728;6.674;2023-03-14T11:38:18;99088.63;;;9.26;100.00
47753;BME280;2038;51.728;6.674;2023-03-14T11:40:57;99089.25;;;9.42;100.00
47753;BME280;2038;51.728;6.674;2023-03-14T11:49:14;99113.41;;;9.51;98.20
47753;BME280;2038;51.728;6.674;2023-03-14T11:55:13;99139.13;;;9.38;98.51
47753;BME280;2038;51.728;6.674;2023-03-14T11:57:45;99147.38;;;9.15;98.58
47753;BME280;2038;51.728;6.674;2023-03-14T12:00:24;99174.09;;;9.07;99.92
47753;BME280;2038;51.728;6.674;2023-03-14T12:03:10;99174.06;;;8.87;100.00
47753;BME280;2038;51.728;6.674;2023-03-14T12:06:22;99193.31;;;8.65;100.00
47753;BME280;2038;51.728;6.674;2023-03-14T12:09:05;99199.59;;;8.55;100.00
47753;BME280;2038;51.728;6.674;2023-03-14T12:11:59;99194.03;;;8.44;100.00
47753;BME280;2038;51.728;6.674;2023-03-14T12:14:33;99185.53;;;8.44;100.00
47753;BME280;2038;51.728;6.674;2023-03-14T12:20:20;99209.41;;;8.65;100.00
47753;BME280;2038;51.728;6.674;2023-03-14T12:22:54;99211.53;;;8.74;100.00
47753;BME280;2038;51.728;6.674;2023-03-14T12:25:30;99226.53;;;8.87;100.00
47753;BME280;2038;51.728;6.674;2023-03-14T12:30:40;99252.03;;;8.88;100.00
47753;BME280;2038;51.728;6.674;2023-03-14T12:41:26;99283.41;;;8.39;100.00
47753;BME280;2038;51.728;6.674;2023-03-14T12:47:00;99290.75;;;8.33;100.00
47753;BME280;2038;51.728;6.674;2023-03-14T12:49:49;99296.06;;;8.37;100.00
47753;BME280;2038;51.728;6.674;2023-03-14T12:52:33;99292.78;;;8.40;100.00
47753;BME280;2038;51.728;6.674;2023-03-14T12:55:24;99297.97;;;8.59;100.00
47753;BME280;2038;51.728;6.674;2023-03-14T13:01:01;99324.31;;;8.95;100.00
47753;BME280;2038;51.728;6.674;2023-03-14T13:03:45;99324.03;;;8.89;100.00
47753;BME280;2038;51.728;6.674;2023-03-14T13:07:01;99330.75;;;8.88;100.00
47753;BME280;2038;51.728;6.674;2023-03-14T13:11:58;99346.03;;;9.24;99.77
47753;BME280;2038;51.728;6.674;2023-03-14T13:14:31;99363.09;;;9.09;93.93
47753;BME280;2038;51.728;6.674;2023-03-14T13:17:02;99377.56;;;9.27;91.41
47753;BME280;2038;51.728;6.674;2023-03-14T13:19:31;99381.75;;;9.09;88.22
47753;BME280;2038;51.728;6.674;2023-03-14T13:22:12;99385.69;;;9.20;88.50
47753;BME280;2038;51.728;6.674;2023-03-14T13:24:46;99398.25;;;9.17;87.70
47753;BME280;2038;51.728;6.674;2023-03-14T13:27:20;99413.69;;;9.04;85.74
47753;BME280;2038;51.728;6.674;2023-03-14T13:29:50;99423.44;;;9.13;85.95
47753;BME280;2038;51.728;6.674;2023-03-14T13:32:27;99425.72;;;9.24;87.11
47753;BME280;2038;51.728;6.674;2023-03-14T13:34:58;99436.63;;;9.22;83.70
47753;BME280;2038;51.728;6.674;2023-03-14T13:37:26;99441.09;;;9.27;85.25
47753;BME280;2038;51.728;6.674;2023-03-14T13:39:55;99434.53;;;9.15;84.54
47753;BME280;2038;51.728;6.674;2023-03-14T13:42:28;99443.41;;;9.23;84.25
47753;BME280;2038;51.728;6.674;2023-03-14T13:44:56;99447.44;;;9.35;84.00
47753;BME280;2038;51.728;6.674;2023-03-14T13:47:26;99451.50;;;9.32;82.83
47753;BME280;2038;51.728;6.674;2023-03-14T13:49:53;99464.38;;;9.35;80.25
47753;BME280;2038;51.728;6.674;2023-03-14T13:52:38;99474.66;;;9.20;78.77
47753;BME280;2038;51.728;6.674;2023-03-14T13:55:13;99472.25;;;9.23;79.28
47753;BME280;2038;51.728;6.674;2023-03-14T13:57:53;99491.09;;;9.11;78.71
47753;BME280;2038;51.728;6.674;2023-03-14T14:00:30;99493.69;;;8.95;78.50
47753;BME280;2038;51.728;6.674;2023-03-14T14:03:02;99496.91;;;8.92;78.48
47753;BME280;2038;51.728;6.674;2023-03-14T14:05:33;99500.03;;;8.86;78.48
47753;BME280;2038;51.728;6.674;2023-03-14T14:08:05;99506.28;;;8.93;78.16
47753;BME280;2038;51.728;6.674;2023-03-14T14:10:32;99514.81;;;8.93;77.92
47753;BME280;2038;51.728;6.674;2023-03-14T14:13:03;99527.75;;;8.98;78.33
47753;BME280;2038;51.728;6.674;2023-03-14T14:15:39;99536.25;;;8.99;76.86
47753;BME280;2038;51.728;6.674;2023-03-14T14:18:12;99538.78;;;8.99;76.79
47753;BME280;2038;51.728;6.674;2023-03-14T14:20:44;99552.53;;;9.02;74.55
47753;BME280;2038;51.728;6.674;2023-03-14T14:25:52;99571.19;;;9.03;75.83